sensor_id;sensor_type;location;lat;lon;timestamp;P1;durP1;ratioP1;P2;durP2;ratioP2
46899;SDS011;32647;49.382;7.078;2022-07-25T00:01:25;7.32;;;6.43;;
46899;SDS011;32647;49.382;7.078;2022-07-25T00:04:11;7.75;;;6.95;;
46899;SDS011;32647;49.382;7.078;2022-07-25T00:06:58;8.88;;;7.13;;
46899;SDS011;32647;49.382;7.078;2022-07-25T00:09:44;8.25;;;6.57;;
46899;SDS011;32647;49.382;7.078;2022-07-25T00:12:30;7.32;;;6.60;;
46899;SDS011;32647;49.382;7.078;2022-07-25T00:15:16;10.10;;;7.05;;
46899;SDS011;32647;49.382;7.078;2022-07-25T00:18:02;7.75;;;6.65;;
46899;SDS011;32647;49.382;7.078;2022-07-25T00:20:48;8.27;;;6.50;;
46899;SDS011;32647;49.382;7.078;2022-07-25T00:23:34;7.13;;;6.40;;
46899;SDS011;32647;49.382;7.078;2022-07-25T00:26:20;8.35;;;6.95;;
46899;SDS011;32647;49.382;7.078;2022-07-25T00:29:06;8.50;;;6.72;;
46899;SDS011;32647;49.382;7.078;2022-07-25T00:31:52;7.03;;;6.32;;
46899;SDS011;32647;49.382;7.078;2022-07-25T00:34:38;8.82;;;6.75;;
46899;SDS011;32647;49.382;7.078;2022-07-25T00:37:27;8.43;;;7.20;;
46899;SDS011;32647;49.382;7.078;2022-07-25T00:40:13;7.88;;;7.07;;
46899;SDS011;32647;49.382;7.078;2022-07-25T00:45:35;9.23;;;7.18;;
46899;SDS011;32647;49.382;7.078;2022-07-25T00:48:21;9.20;;;6.82;;
46899;SDS011;32647;49.382;7.078;2022-07-25T00:51:08;8.95;;;7.00;;
46899;SDS011;32647;49.382;7.078;2022-07-25T00:53:55;8.07;;;7.28;;
46899;SDS011;32647;49.382;7.078;2022-07-25T00:56:42;9.05;;;7.93;;
46899;SDS011;32647;49.382;7.078;2022-07-25T00:59:28;8.73;;;7.15;;
46899;SDS011;32647;49.382;7.078;2022-07-25T01:02:15;7.78;;;7.03;;
46899;SDS011;32647;49.382;7.078;2022-07-25T01:05:02;7.32;;;6.60;;
46899;SDS011;32647;49.382;7.078;2022-07-25T01:07:49;8.18;;;7.38;;
46899;SDS011;32647;49.382;7.078;2022-07-25T01:10:36;8.05;;;7.25;;
46899;SDS011;32647;49.382;7.078;2022-07-25T01:13:22;7.38;;;6.68;;
46899;SDS011;32647;49.382;7.078;2022-07-25T01:16:08;9.50;;;8.00;;
46899;SDS011;32647;49.382;7.078;2022-07-25T01:18:54;9.93;;;7.20;;
46899;SDS011;32647;49.382;7.078;2022-07-25T01:21:40;7.53;;;6.63;;
46899;SDS011;32647;49.382;7.078;2022-07-25T01:24:27;8.27;;;7.25;;
46899;SDS011;32647;49.382;7.078;2022-07-25T01:27:13;8.77;;;7.10;;
46899;SDS011;32647;49.382;7.078;2022-07-25T01:29:59;9.00;;;7.13;;
46899;SDS011;32647;49.382;7.078;2022-07-25T01:32:46;9.10;;;7.30;;
46899;SDS011;32647;49.382;7.078;2022-07-25T01:35:32;9.10;;;7.40;;
46899;SDS011;32647;49.382;7.078;2022-07-25T01:38:18;9.40;;;7.40;;
46899;SDS011;32647;49.382;7.078;2022-07-25T01:41:04;7.80;;;6.95;;
46899;SDS011;32647;49.382;7.078;2022-07-25T01:43:50;8.50;;;7.60;;
46899;SDS011;32647;49.382;7.078;2022-07-25T01:46:36;8.63;;;7.53;;
46899;SDS011;32647;49.382;7.078;2022-07-25T01:49:22;7.93;;;7.13;;
46899;SDS011;32647;49.382;7.078;2022-07-25T01:52:11;9.50;;;7.78;;
46899;SDS011;32647;49.382;7.078;2022-07-25T01:54:58;15.50;;;7.95;;
46899;SDS011;32647;49.382;7.078;2022-07-25T01:57:44;9.90;;;7.20;;
46899;SDS011;32647;49.382;7.078;2022-07-25T02:00:30;8.48;;;7.63;;
46899;SDS011;32647;49.382;7.078;2022-07-25T02:03:17;8.15;;;7.15;;
46899;SDS011;32647;49.382;7.078;2022-07-25T02:06:17;7.93;;;7.22;;
46899;SDS011;32647;49.382;7.078;2022-07-25T02:09:05;7.97;;;7.05;;
46899;SDS011;32647;49.382;7.078;2022-07-25T02:11:51;8.52;;;7.45;;
46899;SDS011;32647;49.382;7.078;2022-07-25T02:14:38;9.13;;;7.57;;
46899;SDS011;32647;49.382;7.078;2022-07-25T02:17:24;8.57;;;7.70;;
46899;SDS011;32647;49.382;7.078;2022-07-25T02:20:11;8.25;;;7.45;;
46899;SDS011;32647;49.382;7.078;2022-07-25T02:22:57;9.38;;;8.18;;
46899;SDS011;32647;49.382;7.078;2022-07-25T02:25:42;9.82;;;7.82;;
46899;SDS011;32647;49.382;7.078;2022-07-25T02:28:28;8.18;;;7.38;;
46899;SDS011;32647;49.382;7.078;2022-07-25T02:31:14;7.82;;;7.03;;
46899;SDS011;32647;49.382;7.078;2022-07-25T02:34:00;8.82;;;7.97;;
46899;SDS011;32647;49.382;7.078;2022-07-25T02:36:46;8.07;;;7.38;;
46899;SDS011;32647;49.382;7.078;2022-07-25T02:39:33;9.25;;;8.35;;
46899;SDS011;32647;49.382;7.078;2022-07-25T02:42:19;11.60;;;7.88;;
46899;SDS011;32647;49.382;7.078;2022-07-25T02:45:05;9.98;;;8.60;;
46899;SDS011;32647;49.382;7.078;2022-07-25T02:47:51;8.98;;;8.02;;
46899;SDS011;32647;49.382;7.078;2022-07-25T02:50:37;8.70;;;7.80;;
46899;SDS011;32647;49.382;7.078;2022-07-25T02:53:23;9.13;;;8.00;;
46899;SDS011;32647;49.382;7.078;2022-07-25T02:56:09;8.98;;;7.85;;
46899;SDS011;32647;49.382;7.078;2022-07-25T02:58:56;8.77;;;7.88;;
46899;SDS011;32647;49.382;7.078;2022-07-25T03:01:42;11.48;;;7.85;;
46899;SDS011;32647;49.382;7.078;2022-07-25T03:04:28;9.40;;;7.32;;
46899;SDS011;32647;49.382;7.078;2022-07-25T03:07:15;8.70;;;7.80;;
46899;SDS011;32647;49.382;7.078;2022-07-25T03:10:01;8.73;;;7.82;;
46899;SDS011;32647;49.382;7.078;2022-07-25T03:12:48;9.65;;;8.27;;
46899;SDS011;32647;49.382;7.078;2022-07-25T03:15:34;8.93;;;8.00;;
46899;SDS011;32647;49.382;7.078;2022-07-25T03:18:20;9.40;;;8.27;;
46899;SDS011;32647;49.382;7.078;2022-07-25T03:21:06;10.45;;;8.07;;
46899;SDS011;32647;49.382;7.078;2022-07-25T03:23:52;8.77;;;7.88;;
46899;SDS011;32647;49.382;7.078;2022-07-25T03:26:38;8.32;;;7.47;;
46899;SDS011;32647;49.382;7.078;2022-07-25T03:29:24;10.38;;;9.20;;
46899;SDS011;32647;49.382;7.078;2022-07-25T03:32:11;11.23;;;8.30;;
46899;SDS011;32647;49.382;7.078;2022-07-25T03:34:57;8.77;;;7.88;;
46899;SDS011;32647;49.382;7.078;2022-07-25T03:37:43;8.90;;;8.00;;
46899;SDS011;32647;49.382;7.078;2022-07-25T03:40:29;9.57;;;8.68;;
46899;SDS011;32647;49.382;7.078;2022-07-25T03:43:16;10.13;;;8.50;;
46899;SDS011;32647;49.382;7.078;2022-07-25T03:46:02;8.70;;;7.80;;
46899;SDS011;32647;49.382;7.078;2022-07-25T03:48:47;9.23;;;7.93;;
46899;SDS011;32647;49.382;7.078;2022-07-25T03:51:34;8.73;;;7.93;;
46899;SDS011;32647;49.382;7.078;2022-07-25T03:54:20;9.93;;;8.65;;
46899;SDS011;32647;49.382;7.078;2022-07-25T03:57:05;9.00;;;8.10;;
46899;SDS011;32647;49.382;7.078;2022-07-25T03:59:51;8.77;;;7.80;;
46899;SDS011;32647;49.382;7.078;2022-07-25T04:02:38;10.90;;;7.93;;
46899;SDS011;32647;49.382;7.078;2022-07-25T04:05:24;9.27;;;8.38;;
46899;SDS011;32647;49.382;7.078;2022-07-25T04:08:10;10.43;;;8.32;;
46899;SDS011;32647;49.382;7.078;2022-07-25T04:10:56;9.13;;;8.23;;
46899;SDS011;32647;49.382;7.078;2022-07-25T04:13:42;8.40;;;7.60;;
46899;SDS011;32647;49.382;7.078;2022-07-25T04:16:28;9.45;;;8.35;;
46899;SDS011;32647;49.382;7.078;2022-07-25T04:19:14;8.57;;;7.78;;
46899;SDS011;32647;49.382;7.078;2022-07-25T04:22:00;9.82;;;8.85;;
46899;SDS011;32647;49.382;7.078;2022-07-25T04:24:46;9.57;;;8.57;;
46899;SDS011;32647;49.382;7.078;2022-07-25T04:27:32;9.20;;;8.30;;
46899;SDS011;32647;49.382;7.078;2022-07-25T04:30:18;9.45;;;8.40;;
46899;SDS011;32647;49.382;7.078;2022-07-25T04:33:04;10.32;;;8.75;;
46899;SDS011;32647;49.382;7.078;2022-07-25T04:35:51;9.35;;;8.40;;
46899;SDS011;32647;49.382;7.078;2022-07-25T04:38:37;9.25;;;8.18;;
46899;SDS011;32647;49.382;7.078;2022-07-25T04:41:23;11.65;;;8.55;;
46899;SDS011;32647;49.382;7.078;2022-07-25T04:44:08;9.02;;;7.75;;
46899;SDS011;32647;49.382;7.078;2022-07-25T04:46:55;9.10;;;8.18;;
46899;SDS011;32647;49.382;7.078;2022-07-25T04:49:40;11.15;;;8.35;;
46899;SDS011;32647;49.382;7.078;2022-07-25T04:52:26;9.20;;;8.30;;
46899;SDS011;32647;49.382;7.078;2022-07-25T04:55:12;11.73;;;8.48;;
46899;SDS011;32647;49.382;7.078;2022-07-25T04:57:58;9.88;;;8.20;;
46899;SDS011;32647;49.382;7.078;2022-07-25T05:00:44;9.95;;;8.40;;
46899;SDS011;32647;49.382;7.078;2022-07-25T05:03:30;8.45;;;7.38;;
46899;SDS011;32647;49.382;7.078;2022-07-25T05:11:20;8.63;;;7.75;;
46899;SDS011;32647;49.382;7.078;2022-07-25T05:14:06;10.18;;;7.80;;
46899;SDS011;32647;49.382;7.078;2022-07-25T05:16:52;9.68;;;8.30;;
46899;SDS011;32647;49.382;7.078;2022-07-25T05:19:38;11.00;;;8.18;;
46899;SDS011;32647;49.382;7.078;2022-07-25T05:22:24;10.35;;;8.52;;
46899;SDS011;32647;49.382;7.078;2022-07-25T05:25:10;11.75;;;7.80;;
46899;SDS011;32647;49.382;7.078;2022-07-25T05:27:56;8.40;;;7.50;;
46899;SDS011;32647;49.382;7.078;2022-07-25T05:30:43;8.45;;;7.63;;
46899;SDS011;32647;49.382;7.078;2022-07-25T05:33:29;9.23;;;8.32;;
46899;SDS011;32647;49.382;7.078;2022-07-25T05:36:15;9.82;;;8.73;;
46899;SDS011;32647;49.382;7.078;2022-07-25T05:39:01;8.57;;;7.45;;
46899;SDS011;32647;49.382;7.078;2022-07-25T05:41:48;9.13;;;8.23;;
46899;SDS011;32647;49.382;7.078;2022-07-25T05:44:34;8.70;;;7.80;;
46899;SDS011;32647;49.382;7.078;2022-07-25T05:47:20;9.02;;;8.13;;
46899;SDS011;32647;49.382;7.078;2022-07-25T05:50:06;10.07;;;7.45;;
46899;SDS011;32647;49.382;7.078;2022-07-25T05:52:52;9.43;;;8.18;;
46899;SDS011;32647;49.382;7.078;2022-07-25T05:55:38;9.32;;;7.75;;
46899;SDS011;32647;49.382;7.078;2022-07-25T05:58:24;9.73;;;8.73;;
46899;SDS011;32647;49.382;7.078;2022-07-25T06:01:11;9.38;;;8.23;;
46899;SDS011;32647;49.382;7.078;2022-07-25T06:03:58;8.80;;;7.90;;
46899;SDS011;32647;49.382;7.078;2022-07-25T06:06:44;9.00;;;8.13;;
46899;SDS011;32647;49.382;7.078;2022-07-25T06:09:35;8.63;;;7.63;;
46899;SDS011;32647;49.382;7.078;2022-07-25T06:12:21;9.10;;;7.95;;
46899;SDS011;32647;49.382;7.078;2022-07-25T06:15:07;9.75;;;8.65;;
46899;SDS011;32647;49.382;7.078;2022-07-25T06:17:53;9.75;;;8.10;;
46899;SDS011;32647;49.382;7.078;2022-07-25T06:20:39;9.48;;;8.20;;
46899;SDS011;32647;49.382;7.078;2022-07-25T06:23:25;9.07;;;8.20;;
46899;SDS011;32647;49.382;7.078;2022-07-25T06:26:11;8.93;;;7.97;;
46899;SDS011;32647;49.382;7.078;2022-07-25T06:28:58;9.43;;;8.23;;
46899;SDS011;32647;49.382;7.078;2022-07-25T06:31:43;9.02;;;8.13;;
46899;SDS011;32647;49.382;7.078;2022-07-25T06:34:30;10.05;;;7.85;;
46899;SDS011;32647;49.382;7.078;2022-07-25T06:37:15;9.10;;;7.93;;
46899;SDS011;32647;49.382;7.078;2022-07-25T06:40:02;8.68;;;7.35;;
46899;SDS011;32647;49.382;7.078;2022-07-25T06:42:48;10.65;;;7.95;;
46899;SDS011;32647;49.382;7.078;2022-07-25T06:45:34;9.23;;;7.20;;
46899;SDS011;32647;49.382;7.078;2022-07-25T06:48:20;7.82;;;7.13;;
46899;SDS011;32647;49.382;7.078;2022-07-25T06:51:08;8.73;;;7.60;;
46899;SDS011;32647;49.382;7.078;2022-07-25T06:53:54;9.75;;;7.90;;
46899;SDS011;32647;49.382;7.078;2022-07-25T06:56:41;8.18;;;7.38;;
46899;SDS011;32647;49.382;7.078;2022-07-25T06:59:27;9.73;;;6.78;;
46899;SDS011;32647;49.382;7.078;2022-07-25T07:02:13;8.68;;;7.75;;
46899;SDS011;32647;49.382;7.078;2022-07-25T07:04:59;11.73;;;7.57;;
46899;SDS011;32647;49.382;7.078;2022-07-25T07:07:45;8.57;;;6.90;;
46899;SDS011;32647;49.382;7.078;2022-07-25T07:10:31;7.85;;;7.15;;
46899;SDS011;32647;49.382;7.078;2022-07-25T07:13:17;11.07;;;7.45;;
46899;SDS011;32647;49.382;7.078;2022-07-25T07:16:03;7.97;;;7.22;;
46899;SDS011;32647;49.382;7.078;2022-07-25T07:18:49;8.65;;;7.75;;
46899;SDS011;32647;49.382;7.078;2022-07-25T07:21:35;8.68;;;7.50;;
46899;SDS011;32647;49.382;7.078;2022-07-25T07:24:22;9.75;;;7.60;;
46899;SDS011;32647;49.382;7.078;2022-07-25T07:27:08;10.93;;;7.55;;
46899;SDS011;32647;49.382;7.078;2022-07-25T07:29:54;8.15;;;7.43;;
46899;SDS011;32647;49.382;7.078;2022-07-25T07:32:40;8.55;;;7.75;;
46899;SDS011;32647;49.382;7.078;2022-07-25T07:35:26;11.35;;;7.63;;
46899;SDS011;32647;49.382;7.078;2022-07-25T07:38:12;8.73;;;7.88;;
46899;SDS011;32647;49.382;7.078;2022-07-25T07:40:59;14.70;;;7.13;;
46899;SDS011;32647;49.382;7.078;2022-07-25T07:43:45;8.82;;;7.43;;
46899;SDS011;32647;49.382;7.078;2022-07-25T07:46:31;7.90;;;7.28;;
46899;SDS011;32647;49.382;7.078;2022-07-25T07:49:17;8.63;;;7.00;;
46899;SDS011;32647;49.382;7.078;2022-07-25T07:52:03;8.18;;;7.15;;
46899;SDS011;32647;49.382;7.078;2022-07-25T07:54:49;8.95;;;7.32;;
46899;SDS011;32647;49.382;7.078;2022-07-25T07:57:54;7.93;;;7.18;;
46899;SDS011;32647;49.382;7.078;2022-07-25T08:00:41;7.97;;;7.18;;
46899;SDS011;32647;49.382;7.078;2022-07-25T08:03:28;7.65;;;6.95;;
46899;SDS011;32647;49.382;7.078;2022-07-25T08:06:14;8.80;;;7.00;;
46899;SDS011;32647;49.382;7.078;2022-07-25T08:09:00;8.82;;;7.18;;
46899;SDS011;32647;49.382;7.078;2022-07-25T08:11:45;8.25;;;7.03;;
46899;SDS011;32647;49.382;7.078;2022-07-25T08:14:31;11.50;;;6.82;;
46899;SDS011;32647;49.382;7.078;2022-07-25T08:17:17;8.18;;;7.38;;
46899;SDS011;32647;49.382;7.078;2022-07-25T08:20:04;7.50;;;6.68;;
46899;SDS011;32647;49.382;7.078;2022-07-25T08:22:53;9.30;;;6.60;;
46899;SDS011;32647;49.382;7.078;2022-07-25T08:25:39;9.15;;;7.43;;
46899;SDS011;32647;49.382;7.078;2022-07-25T08:28:25;8.68;;;6.68;;
46899;SDS011;32647;49.382;7.078;2022-07-25T08:31:12;9.90;;;7.75;;
46899;SDS011;32647;49.382;7.078;2022-07-25T08:33:58;10.60;;;6.55;;
46899;SDS011;32647;49.382;7.078;2022-07-25T08:36:44;10.50;;;7.13;;
46899;SDS011;32647;49.382;7.078;2022-07-25T08:39:30;8.20;;;6.72;;
46899;SDS011;32647;49.382;7.078;2022-07-25T08:42:16;7.70;;;6.90;;
46899;SDS011;32647;49.382;7.078;2022-07-25T08:45:05;8.00;;;7.20;;
46899;SDS011;32647;49.382;7.078;2022-07-25T08:47:54;8.18;;;7.22;;
46899;SDS011;32647;49.382;7.078;2022-07-25T08:50:41;8.75;;;6.72;;
46899;SDS011;32647;49.382;7.078;2022-07-25T08:53:27;8.25;;;6.60;;
46899;SDS011;32647;49.382;7.078;2022-07-25T08:56:14;9.93;;;7.60;;
46899;SDS011;32647;49.382;7.078;2022-07-25T08:59:00;8.25;;;7.45;;
46899;SDS011;32647;49.382;7.078;2022-07-25T09:01:46;8.93;;;6.90;;
46899;SDS011;32647;49.382;7.078;2022-07-25T09:04:33;8.88;;;7.13;;
46899;SDS011;32647;49.382;7.078;2022-07-25T09:10:23;7.07;;;6.47;;
46899;SDS011;32647;49.382;7.078;2022-07-25T09:13:11;7.68;;;6.85;;
46899;SDS011;32647;49.382;7.078;2022-07-25T09:15:58;7.60;;;6.85;;
46899;SDS011;32647;49.382;7.078;2022-07-25T09:18:44;7.13;;;6.43;;
46899;SDS011;32647;49.382;7.078;2022-07-25T09:21:30;7.63;;;6.18;;
46899;SDS011;32647;49.382;7.078;2022-07-25T09:24:17;7.78;;;5.50;;
46899;SDS011;32647;49.382;7.078;2022-07-25T09:27:07;6.00;;;5.40;;
46899;SDS011;32647;49.382;7.078;2022-07-25T09:29:54;7.05;;;6.35;;
46899;SDS011;32647;49.382;7.078;2022-07-25T09:32:40;7.97;;;6.25;;
46899;SDS011;32647;49.382;7.078;2022-07-25T09:35:34;8.82;;;6.40;;
46899;SDS011;32647;49.382;7.078;2022-07-25T09:38:23;10.25;;;6.20;;
46899;SDS011;32647;49.382;7.078;2022-07-25T09:41:09;7.68;;;5.72;;
46899;SDS011;32647;49.382;7.078;2022-07-25T09:43:55;7.85;;;6.35;;
46899;SDS011;32647;49.382;7.078;2022-07-25T09:46:41;10.30;;;6.63;;
46899;SDS011;32647;49.382;7.078;2022-07-25T09:49:43;9.30;;;6.53;;
46899;SDS011;32647;49.382;7.078;2022-07-25T09:52:31;7.07;;;5.63;;
46899;SDS011;32647;49.382;7.078;2022-07-25T09:55:19;9.38;;;6.25;;
46899;SDS011;32647;49.382;7.078;2022-07-25T09:58:05;6.82;;;6.20;;
46899;SDS011;32647;49.382;7.078;2022-07-25T10:00:53;6.60;;;6.00;;
46899;SDS011;32647;49.382;7.078;2022-07-25T10:07:06;7.70;;;5.65;;
46899;SDS011;32647;49.382;7.078;2022-07-25T10:09:54;6.95;;;6.25;;
46899;SDS011;32647;49.382;7.078;2022-07-25T10:12:40;8.70;;;6.38;;
46899;SDS011;32647;49.382;7.078;2022-07-25T10:15:37;9.73;;;6.38;;
46899;SDS011;32647;49.382;7.078;2022-07-25T10:18:34;6.50;;;5.93;;
46899;SDS011;32647;49.382;7.078;2022-07-25T10:21:20;7.10;;;6.15;;
46899;SDS011;32647;49.382;7.078;2022-07-25T10:24:08;6.47;;;5.88;;
46899;SDS011;32647;49.382;7.078;2022-07-25T10:26:55;9.05;;;6.75;;
46899;SDS011;32647;49.382;7.078;2022-07-25T10:29:41;7.78;;;6.35;;
46899;SDS011;32647;49.382;7.078;2022-07-25T10:32:31;7.15;;;5.85;;
46899;SDS011;32647;49.382;7.078;2022-07-25T10:35:19;6.53;;;5.63;;
46899;SDS011;32647;49.382;7.078;2022-07-25T10:38:06;5.90;;;5.40;;
46899;SDS011;32647;49.382;7.078;2022-07-25T10:40:52;6.03;;;5.35;;
46899;SDS011;32647;49.382;7.078;2022-07-25T10:43:38;6.93;;;5.30;;
46899;SDS011;32647;49.382;7.078;2022-07-25T10:46:25;8.55;;;5.30;;
46899;SDS011;32647;49.382;7.078;2022-07-25T10:49:19;5.57;;;4.55;;
46899;SDS011;32647;49.382;7.078;2022-07-25T10:52:15;4.85;;;4.45;;
46899;SDS011;32647;49.382;7.078;2022-07-25T10:55:03;5.07;;;4.50;;
46899;SDS011;32647;49.382;7.078;2022-07-25T10:58:03;4.93;;;4.43;;
46899;SDS011;32647;49.382;7.078;2022-07-25T11:00:51;5.72;;;4.88;;
46899;SDS011;32647;49.382;7.078;2022-07-25T11:03:38;7.10;;;4.80;;
46899;SDS011;32647;49.382;7.078;2022-07-25T11:12:05;8.05;;;4.63;;
46899;SDS011;32647;49.382;7.078;2022-07-25T11:14:55;5.32;;;4.82;;
46899;SDS011;32647;49.382;7.078;2022-07-25T11:17:49;6.35;;;4.88;;
46899;SDS011;32647;49.382;7.078;2022-07-25T11:20:36;8.25;;;4.97;;
46899;SDS011;32647;49.382;7.078;2022-07-25T11:23:22;8.35;;;5.20;;
46899;SDS011;32647;49.382;7.078;2022-07-25T11:26:09;9.90;;;5.15;;
46899;SDS011;32647;49.382;7.078;2022-07-25T11:28:56;6.60;;;5.88;;
46899;SDS011;32647;49.382;7.078;2022-07-25T11:31:42;6.25;;;5.40;;
46899;SDS011;32647;49.382;7.078;2022-07-25T11:34:32;5.57;;;5.00;;
46899;SDS011;32647;49.382;7.078;2022-07-25T11:37:19;6.38;;;5.05;;
46899;SDS011;32647;49.382;7.078;2022-07-25T11:40:06;9.15;;;5.13;;
46899;SDS011;32647;49.382;7.078;2022-07-25T11:42:54;10.45;;;5.20;;
46899;SDS011;32647;49.382;7.078;2022-07-25T11:45:41;8.05;;;5.00;;
46899;SDS011;32647;49.382;7.078;2022-07-25T11:48:32;5.43;;;4.93;;
46899;SDS011;32647;49.382;7.078;2022-07-25T11:51:23;6.85;;;5.28;;
46899;SDS011;32647;49.382;7.078;2022-07-25T11:54:11;9.10;;;5.70;;
46899;SDS011;32647;49.382;7.078;2022-07-25T11:56:57;9.35;;;5.68;;
46899;SDS011;32647;49.382;7.078;2022-07-25T11:59:44;7.30;;;5.60;;
46899;SDS011;32647;49.382;7.078;2022-07-25T12:06:11;10.20;;;5.43;;
46899;SDS011;32647;49.382;7.078;2022-07-25T12:09:16;6.65;;;5.35;;
46899;SDS011;32647;49.382;7.078;2022-07-25T12:12:14;5.38;;;4.88;;
46899;SDS011;32647;49.382;7.078;2022-07-25T12:15:00;5.75;;;5.25;;
46899;SDS011;32647;49.382;7.078;2022-07-25T12:17:48;6.15;;;5.38;;
46899;SDS011;32647;49.382;7.078;2022-07-25T12:20:43;6.35;;;5.40;;
46899;SDS011;32647;49.382;7.078;2022-07-25T12:23:29;7.65;;;5.68;;
46899;SDS011;32647;49.382;7.078;2022-07-25T12:26:22;6.47;;;5.68;;
46899;SDS011;32647;49.382;7.078;2022-07-25T12:29:08;10.20;;;5.80;;
46899;SDS011;32647;49.382;7.078;2022-07-25T12:32:11;6.53;;;5.55;;
46899;SDS011;32647;49.382;7.078;2022-07-25T12:35:18;9.65;;;5.72;;
46899;SDS011;32647;49.382;7.078;2022-07-25T12:41:19;7.07;;;5.57;;
46899;SDS011;32647;49.382;7.078;2022-07-25T12:44:18;6.40;;;5.80;;
46899;SDS011;32647;49.382;7.078;2022-07-25T12:47:09;8.93;;;6.05;;
46899;SDS011;32647;49.382;7.078;2022-07-25T12:49:58;6.18;;;5.63;;
46899;SDS011;32647;49.382;7.078;2022-07-25T12:53:00;6.53;;;5.93;;
46899;SDS011;32647;49.382;7.078;2022-07-25T12:55:49;7.55;;;5.63;;
46899;SDS011;32647;49.382;7.078;2022-07-25T12:58:38;6.75;;;5.32;;
46899;SDS011;32647;49.382;7.078;2022-07-25T13:01:24;9.15;;;5.65;;
46899;SDS011;32647;49.382;7.078;2022-07-25T13:04:26;6.20;;;5.60;;
46899;SDS011;32647;49.382;7.078;2022-07-25T13:07:21;8.10;;;5.55;;
46899;SDS011;32647;49.382;7.078;2022-07-25T13:10:16;8.75;;;5.03;;
46899;SDS011;32647;49.382;7.078;2022-07-25T13:19:03;10.98;;;4.55;;
46899;SDS011;32647;49.382;7.078;2022-07-25T13:21:49;5.97;;;4.80;;
46899;SDS011;32647;49.382;7.078;2022-07-25T13:24:35;8.93;;;5.07;;
46899;SDS011;32647;49.382;7.078;2022-07-25T13:27:23;8.43;;;5.25;;
46899;SDS011;32647;49.382;7.078;2022-07-25T13:30:09;7.30;;;5.03;;
46899;SDS011;32647;49.382;7.078;2022-07-25T13:32:55;10.57;;;5.50;;
46899;SDS011;32647;49.382;7.078;2022-07-25T13:35:41;5.38;;;4.90;;
46899;SDS011;32647;49.382;7.078;2022-07-25T13:38:27;10.85;;;5.38;;
46899;SDS011;32647;49.382;7.078;2022-07-25T13:41:13;6.55;;;5.47;;
46899;SDS011;32647;49.382;7.078;2022-07-25T13:43:59;6.88;;;5.53;;
46899;SDS011;32647;49.382;7.078;2022-07-25T13:46:47;9.95;;;5.90;;
46899;SDS011;32647;49.382;7.078;2022-07-25T13:49:35;9.90;;;5.90;;
46899;SDS011;32647;49.382;7.078;2022-07-25T13:52:22;8.90;;;6.07;;
46899;SDS011;32647;49.382;7.078;2022-07-25T13:55:08;9.18;;;5.80;;
46899;SDS011;32647;49.382;7.078;2022-07-25T13:57:55;5.75;;;5.13;;
46899;SDS011;32647;49.382;7.078;2022-07-25T14:00:42;13.55;;;5.40;;
46899;SDS011;32647;49.382;7.078;2022-07-25T14:03:28;8.65;;;5.20;;
46899;SDS011;32647;49.382;7.078;2022-07-25T14:06:14;10.48;;;5.60;;
46899;SDS011;32647;49.382;7.078;2022-07-25T14:09:00;13.65;;;5.50;;
46899;SDS011;32647;49.382;7.078;2022-07-25T14:11:46;8.35;;;4.93;;
46899;SDS011;32647;49.382;7.078;2022-07-25T14:14:32;12.88;;;5.15;;
46899;SDS011;32647;49.382;7.078;2022-07-25T14:17:18;10.65;;;5.72;;
46899;SDS011;32647;49.382;7.078;2022-07-25T14:20:05;16.60;;;5.00;;
46899;SDS011;32647;49.382;7.078;2022-07-25T14:22:51;5.78;;;4.85;;
46899;SDS011;32647;49.382;7.078;2022-07-25T14:25:37;7.43;;;4.80;;
46899;SDS011;32647;49.382;7.078;2022-07-25T14:28:24;9.05;;;4.70;;
46899;SDS011;32647;49.382;7.078;2022-07-25T14:31:10;7.43;;;4.75;;
46899;SDS011;32647;49.382;7.078;2022-07-25T14:33:56;9.88;;;4.65;;
46899;SDS011;32647;49.382;7.078;2022-07-25T14:36:42;6.25;;;4.13;;
46899;SDS011;32647;49.382;7.078;2022-07-25T14:39:32;8.60;;;3.85;;
46899;SDS011;32647;49.382;7.078;2022-07-25T14:42:18;8.80;;;3.83;;
46899;SDS011;32647;49.382;7.078;2022-07-25T14:45:04;11.25;;;3.90;;
46899;SDS011;32647;49.382;7.078;2022-07-25T14:47:50;7.85;;;3.92;;
46899;SDS011;32647;49.382;7.078;2022-07-25T14:50:36;9.45;;;3.95;;
46899;SDS011;32647;49.382;7.078;2022-07-25T14:53:23;9.20;;;3.83;;
46899;SDS011;32647;49.382;7.078;2022-07-25T14:56:10;7.80;;;3.42;;
46899;SDS011;32647;49.382;7.078;2022-07-25T14:58:56;7.30;;;3.40;;
46899;SDS011;32647;49.382;7.078;2022-07-25T15:01:43;8.23;;;3.00;;
46899;SDS011;32647;49.382;7.078;2022-07-25T15:04:29;6.68;;;3.30;;
46899;SDS011;32647;49.382;7.078;2022-07-25T15:07:14;9.38;;;2.80;;
46899;SDS011;32647;49.382;7.078;2022-07-25T15:10:00;8.52;;;2.90;;
46899;SDS011;32647;49.382;7.078;2022-07-25T15:12:46;11.80;;;3.47;;
46899;SDS011;32647;49.382;7.078;2022-07-25T15:15:32;6.88;;;2.97;;
46899;SDS011;32647;49.382;7.078;2022-07-25T15:18:18;10.13;;;2.95;;
46899;SDS011;32647;49.382;7.078;2022-07-25T15:21:05;10.30;;;2.53;;
46899;SDS011;32647;49.382;7.078;2022-07-25T15:23:51;10.27;;;2.85;;
46899;SDS011;32647;49.382;7.078;2022-07-25T15:26:38;8.38;;;2.90;;
46899;SDS011;32647;49.382;7.078;2022-07-25T15:29:24;9.40;;;2.75;;
46899;SDS011;32647;49.382;7.078;2022-07-25T15:32:13;4.13;;;2.75;;
46899;SDS011;32647;49.382;7.078;2022-07-25T15:34:59;7.45;;;2.67;;
46899;SDS011;32647;49.382;7.078;2022-07-25T15:37:45;4.80;;;2.50;;
46899;SDS011;32647;49.382;7.078;2022-07-25T15:40:31;4.85;;;2.63;;
46899;SDS011;32647;49.382;7.078;2022-07-25T15:43:17;7.05;;;2.40;;
46899;SDS011;32647;49.382;7.078;2022-07-25T15:46:03;5.47;;;2.53;;
46899;SDS011;32647;49.382;7.078;2022-07-25T15:48:49;2.83;;;2.30;;
46899;SDS011;32647;49.382;7.078;2022-07-25T15:51:35;5.53;;;2.30;;
46899;SDS011;32647;49.382;7.078;2022-07-25T15:54:21;3.92;;;2.50;;
46899;SDS011;32647;49.382;7.078;2022-07-25T15:57:07;5.95;;;2.45;;
46899;SDS011;32647;49.382;7.078;2022-07-25T15:59:52;6.00;;;2.60;;
46899;SDS011;32647;49.382;7.078;2022-07-25T16:02:41;6.53;;;2.20;;
46899;SDS011;32647;49.382;7.078;2022-07-25T16:05:28;5.80;;;1.90;;
46899;SDS011;32647;49.382;7.078;2022-07-25T16:08:15;9.82;;;2.55;;
46899;SDS011;32647;49.382;7.078;2022-07-25T16:11:01;4.80;;;2.25;;
46899;SDS011;32647;49.382;7.078;2022-07-25T16:13:48;9.52;;;2.50;;
46899;SDS011;32647;49.382;7.078;2022-07-25T16:16:34;4.85;;;2.33;;
46899;SDS011;32647;49.382;7.078;2022-07-25T16:19:21;5.15;;;2.28;;
46899;SDS011;32647;49.382;7.078;2022-07-25T16:22:07;5.32;;;2.75;;
46899;SDS011;32647;49.382;7.078;2022-07-25T16:24:53;4.03;;;2.40;;
46899;SDS011;32647;49.382;7.078;2022-07-25T16:27:39;7.90;;;2.45;;
46899;SDS011;32647;49.382;7.078;2022-07-25T16:30:25;6.22;;;2.47;;
46899;SDS011;32647;49.382;7.078;2022-07-25T16:33:12;4.18;;;2.30;;
46899;SDS011;32647;49.382;7.078;2022-07-25T16:35:58;3.90;;;2.22;;
46899;SDS011;32647;49.382;7.078;2022-07-25T16:38:44;6.97;;;2.70;;
46899;SDS011;32647;49.382;7.078;2022-07-25T16:41:31;5.55;;;2.65;;
46899;SDS011;32647;49.382;7.078;2022-07-25T16:44:17;5.35;;;2.20;;
46899;SDS011;32647;49.382;7.078;2022-07-25T16:47:04;5.30;;;2.20;;
46899;SDS011;32647;49.382;7.078;2022-07-25T16:49:51;5.25;;;2.30;;
46899;SDS011;32647;49.382;7.078;2022-07-25T16:52:37;6.50;;;2.50;;
46899;SDS011;32647;49.382;7.078;2022-07-25T16:55:23;8.27;;;2.50;;
46899;SDS011;32647;49.382;7.078;2022-07-25T16:58:09;4.15;;;2.08;;
46899;SDS011;32647;49.382;7.078;2022-07-25T17:00:55;5.95;;;2.38;;
46899;SDS011;32647;49.382;7.078;2022-07-25T17:03:41;4.20;;;2.22;;
46899;SDS011;32647;49.382;7.078;2022-07-25T17:06:27;7.90;;;2.50;;
46899;SDS011;32647;49.382;7.078;2022-07-25T17:09:13;4.15;;;2.00;;
46899;SDS011;32647;49.382;7.078;2022-07-25T17:12:01;8.00;;;2.28;;
46899;SDS011;32647;49.382;7.078;2022-07-25T17:14:47;9.05;;;2.28;;
46899;SDS011;32647;49.382;7.078;2022-07-25T17:17:33;7.15;;;2.65;;